• Join FlightAware (Why Join?)
  • Login
  • US Flag 
09:13AM EDT


 

Airport Tracker/Info


-or-


 

Live Flight TrackerFlight Track Log ✈ JAL1272 ✈ 07-May-2013 ✈ RJNK / KMQ - RJTT / HND

Flight Track Log - Related Links

Times and Time Zones

All times are in EDT time to prevent confusion due to time zone crossing. See the JAL1272 flight status page for this flight to view local times or setup timezone preferences in your user account.

Time Position Orientation Groundspeed Altitude Reporting Facility
EDT Latitude Longitude Course Direction KTS MPH feet Rate Location/Type
08:56PM 36.3351 136.6575 106° East  Level Estimated
08:57PM 36.3155 136.7407 106° East  Level Estimated
08:58PM 36.2958 136.8239 106° East  Level Estimated
08:59PM 36.2761 136.9069 106° East  Level Estimated
09:00PM 36.2563 136.9900 106° East  Level Estimated
09:01PM 36.2365 137.0730 106° East  Level Estimated
09:02PM 36.2156 137.1602 107° East  Level Estimated
09:03PM 36.1946 137.2474 107° East  Level Estimated
09:04PM 36.1735 137.3345 107° East  Level Estimated
09:05PM 36.1524 137.4216 107° East  Level Estimated
09:06PM 36.1313 137.5086 107° East  Level Estimated
09:07PM 36.1100 137.5956 107° East  Level Estimated
09:08PM 36.0887 137.6825 107° East  Level Estimated
09:09PM 36.0674 137.7694 107° East  Level Estimated
09:10PM 36.0459 137.8562 107° East  Level Estimated
09:11PM 36.0244 137.9430 107° East  Level Estimated
09:12PM 36.0029 138.0298 107° East  Level Estimated
09:13PM 35.9813 138.1165 107° East  Level Estimated
09:14PM 35.9596 138.2031 107° East  Level Estimated
09:15PM 35.9379 138.2897 107° East  Level Estimated
09:16PM 35.9161 138.3763 107° East  Level Estimated
09:17PM 35.8942 138.4628 107° East  Level Estimated
09:18PM 35.8723 138.5493 107° East  Level Estimated
09:19PM 35.8503 138.6357 107° East  Level Estimated
09:20PM 35.8283 138.7220 107° East  Level Estimated
09:21PM 35.8062 138.8083 108° East  Level Estimated
09:22PM 35.7840 138.8946 108° East  Level Estimated
09:23PM 35.7618 138.9808 108° East  Level Estimated
09:24PM 35.7395 139.0670 108° East  Level Estimated
09:25PM 35.7177 139.1510 108° East  Level Estimated
09:26PM 35.6958 139.2349 108° East  Level Estimated
09:27PM 35.6739 139.3188 108° East  Level Estimated
09:28PM 35.6520 139.4026 108° East  Level Estimated
09:29PM 35.6299 139.4864 108° East  Level Estimated
09:30PM 35.6078 139.5701 108° East  Level Estimated
09:31PM 35.5851 139.6560 108° East  Level Estimated
09:32PM 35.5624 139.7418 108° East  Level Estimated
09:33PM 35.5523 139.7797 108° East  Level Estimated
09:34PM 35.5523 139.7797 122° Southeast  Level Estimated
09:35PM 35.5523 139.7797 122° Southeast  Level Estimated
09:36PM 35.5523 139.7797 122° Southeast  Level Estimated
09:37PM 35.5523 139.7797 122° Southeast  Level Estimated
09:38PM 35.5523 139.7797 122° Southeast  Level Estimated
09:39PM 35.5523 139.7797 122° Southeast  Level Estimated
09:40PM 35.5523 139.7797 122° Southeast  Level Estimated
09:41PM 35.5523 139.7797 122° Southeast  Level Estimated
09:42PM 35.5523 139.7797 122° Southeast  Level Estimated
09:43PM 35.5523 139.7797 122° Southeast  Level Estimated
09:44PM 35.5523 139.7797 122° Southeast  Level Estimated
09:45PM 35.5523 139.7797 122° Southeast  Level Estimated